sensor_id;sensor_type;location;lat;lon;timestamp;P1;durP1;ratioP1;P2;durP2;ratioP2
25663;SDS011;13522;50.018;20.014;2022-12-24T00:02:57;32.78;;;18.85;;
25663;SDS011;13522;50.018;20.014;2022-12-24T00:06:12;27.93;;;17.10;;
25663;SDS011;13522;50.018;20.014;2022-12-24T00:09:26;32.83;;;19.40;;
25663;SDS011;13522;50.018;20.014;2022-12-24T00:12:38;28.35;;;17.00;;
25663;SDS011;13522;50.018;20.014;2022-12-24T00:15:51;27.75;;;17.83;;
25663;SDS011;13522;50.018;20.014;2022-12-24T00:19:03;32.45;;;19.15;;
25663;SDS011;13522;50.018;20.014;2022-12-24T00:22:16;37.53;;;21.18;;
25663;SDS011;13522;50.018;20.014;2022-12-24T00:25:27;31.00;;;18.80;;
25663;SDS011;13522;50.018;20.014;2022-12-24T00:28:40;29.48;;;18.05;;
25663;SDS011;13522;50.018;20.014;2022-12-24T00:31:52;26.63;;;16.20;;
25663;SDS011;13522;50.018;20.014;2022-12-24T00:35:04;27.83;;;18.63;;
25663;SDS011;13522;50.018;20.014;2022-12-24T00:38:17;27.78;;;17.68;;
25663;SDS011;13522;50.018;20.014;2022-12-24T00:41:29;28.53;;;17.48;;
25663;SDS011;13522;50.018;20.014;2022-12-24T00:44:41;28.28;;;17.85;;
25663;SDS011;13522;50.018;20.014;2022-12-24T00:47:53;27.70;;;16.33;;
25663;SDS011;13522;50.018;20.014;2022-12-24T00:51:05;24.33;;;16.70;;
25663;SDS011;13522;50.018;20.014;2022-12-24T00:54:17;26.25;;;15.00;;
25663;SDS011;13522;50.018;20.014;2022-12-24T00:57:30;22.33;;;13.48;;
25663;SDS011;13522;50.018;20.014;2022-12-24T01:00:42;15.40;;;9.13;;
25663;SDS011;13522;50.018;20.014;2022-12-24T01:03:54;19.83;;;10.18;;
25663;SDS011;13522;50.018;20.014;2022-12-24T01:07:17;18.13;;;10.55;;
25663;SDS011;13522;50.018;20.014;2022-12-24T01:10:29;12.43;;;8.23;;
25663;SDS011;13522;50.018;20.014;2022-12-24T01:13:41;13.75;;;8.58;;
25663;SDS011;13522;50.018;20.014;2022-12-24T01:16:53;11.90;;;7.00;;
25663;SDS011;13522;50.018;20.014;2022-12-24T01:20:07;11.03;;;6.50;;
25663;SDS011;13522;50.018;20.014;2022-12-24T01:23:23;10.05;;;5.50;;
25663;SDS011;13522;50.018;20.014;2022-12-24T01:26:36;10.15;;;5.13;;
25663;SDS011;13522;50.018;20.014;2022-12-24T01:29:47;7.90;;;4.45;;
25663;SDS011;13522;50.018;20.014;2022-12-24T01:32:59;5.65;;;3.65;;
25663;SDS011;13522;50.018;20.014;2022-12-24T01:36:12;5.45;;;3.93;;
25663;SDS011;13522;50.018;20.014;2022-12-24T01:39:24;7.63;;;3.90;;
25663;SDS011;13522;50.018;20.014;2022-12-24T01:42:36;6.00;;;3.63;;
25663;SDS011;13522;50.018;20.014;2022-12-24T01:46:08;4.70;;;3.00;;
25663;SDS011;13522;50.018;20.014;2022-12-24T01:49:25;5.85;;;3.30;;
25663;SDS011;13522;50.018;20.014;2022-12-24T01:52:37;5.78;;;3.18;;
25663;SDS011;13522;50.018;20.014;2022-12-24T01:55:51;5.38;;;3.08;;
25663;SDS011;13522;50.018;20.014;2022-12-24T01:59:06;4.00;;;2.55;;
25663;SDS011;13522;50.018;20.014;2022-12-24T02:05:34;4.20;;;2.78;;
25663;SDS011;13522;50.018;20.014;2022-12-24T02:08:53;7.35;;;4.73;;
25663;SDS011;13522;50.018;20.014;2022-12-24T02:12:05;15.80;;;10.03;;
25663;SDS011;13522;50.018;20.014;2022-12-24T02:15:18;20.28;;;11.88;;
25663;SDS011;13522;50.018;20.014;2022-12-24T02:18:32;19.93;;;13.85;;
25663;SDS011;13522;50.018;20.014;2022-12-24T02:21:52;22.15;;;14.50;;
25663;SDS011;13522;50.018;20.014;2022-12-24T02:25:19;22.73;;;14.70;;
25663;SDS011;13522;50.018;20.014;2022-12-24T02:29:00;23.02;;;15.30;;
25663;SDS011;13522;50.018;20.014;2022-12-24T02:32:34;22.58;;;14.75;;
25663;SDS011;13522;50.018;20.014;2022-12-24T02:36:00;23.00;;;15.85;;
25663;SDS011;13522;50.018;20.014;2022-12-24T02:39:19;25.85;;;16.73;;
25663;SDS011;13522;50.018;20.014;2022-12-24T02:42:36;24.43;;;15.83;;
25663;SDS011;13522;50.018;20.014;2022-12-24T02:45:53;26.55;;;16.55;;
25663;SDS011;13522;50.018;20.014;2022-12-24T02:49:09;26.80;;;17.18;;
25663;SDS011;13522;50.018;20.014;2022-12-24T02:52:29;27.93;;;16.98;;
25663;SDS011;13522;50.018;20.014;2022-12-24T02:55:46;27.55;;;18.40;;
25663;SDS011;13522;50.018;20.014;2022-12-24T02:59:12;29.63;;;17.70;;
25663;SDS011;13522;50.018;20.014;2022-12-24T03:06:21;27.83;;;18.68;;
25663;SDS011;13522;50.018;20.014;2022-12-24T03:09:42;26.18;;;17.23;;
25663;SDS011;13522;50.018;20.014;2022-12-24T03:13:08;24.33;;;16.50;;
25663;SDS011;13522;50.018;20.014;2022-12-24T03:16:24;28.35;;;17.45;;
25663;SDS011;13522;50.018;20.014;2022-12-24T03:19:37;26.25;;;17.50;;
25663;SDS011;13522;50.018;20.014;2022-12-24T03:22:50;24.28;;;16.25;;
25663;SDS011;13522;50.018;20.014;2022-12-24T03:26:04;28.55;;;18.85;;
25663;SDS011;13522;50.018;20.014;2022-12-24T03:29:18;26.25;;;17.83;;
25663;SDS011;13522;50.018;20.014;2022-12-24T03:32:31;23.60;;;16.85;;
25663;SDS011;13522;50.018;20.014;2022-12-24T03:35:44;25.35;;;18.08;;
25663;SDS011;13522;50.018;20.014;2022-12-24T03:38:57;27.63;;;18.25;;
25663;SDS011;13522;50.018;20.014;2022-12-24T03:42:09;31.70;;;21.23;;
25663;SDS011;13522;50.018;20.014;2022-12-24T03:45:22;29.10;;;20.08;;
25663;SDS011;13522;50.018;20.014;2022-12-24T03:48:34;28.60;;;18.63;;
25663;SDS011;13522;50.018;20.014;2022-12-24T03:51:49;25.33;;;17.78;;
25663;SDS011;13522;50.018;20.014;2022-12-24T03:55:01;29.83;;;18.30;;
25663;SDS011;13522;50.018;20.014;2022-12-24T03:58:15;31.70;;;22.38;;
25663;SDS011;13522;50.018;20.014;2022-12-24T04:01:27;35.03;;;23.08;;
25663;SDS011;13522;50.018;20.014;2022-12-24T04:04:39;30.45;;;21.20;;
25663;SDS011;13522;50.018;20.014;2022-12-24T04:07:51;30.25;;;20.50;;
25663;SDS011;13522;50.018;20.014;2022-12-24T04:11:05;30.95;;;21.03;;
25663;SDS011;13522;50.018;20.014;2022-12-24T04:17:30;34.05;;;22.78;;
25663;SDS011;13522;50.018;20.014;2022-12-24T04:20:43;29.83;;;20.88;;
25663;SDS011;13522;50.018;20.014;2022-12-24T04:23:55;27.60;;;20.08;;
25663;SDS011;13522;50.018;20.014;2022-12-24T04:27:07;29.35;;;20.40;;
25663;SDS011;13522;50.018;20.014;2022-12-24T04:30:20;32.68;;;22.35;;
25663;SDS011;13522;50.018;20.014;2022-12-24T04:33:33;32.90;;;21.77;;
25663;SDS011;13522;50.018;20.014;2022-12-24T04:36:47;31.15;;;20.98;;
25663;SDS011;13522;50.018;20.014;2022-12-24T04:40:00;26.90;;;18.30;;
25663;SDS011;13522;50.018;20.014;2022-12-24T04:43:13;30.20;;;20.68;;
25663;SDS011;13522;50.018;20.014;2022-12-24T04:46:26;36.23;;;22.15;;
25663;SDS011;13522;50.018;20.014;2022-12-24T04:49:39;33.73;;;22.65;;
25663;SDS011;13522;50.018;20.014;2022-12-24T04:52:52;32.73;;;22.03;;
25663;SDS011;13522;50.018;20.014;2022-12-24T04:56:07;33.28;;;22.10;;
25663;SDS011;13522;50.018;20.014;2022-12-24T04:59:22;33.05;;;20.65;;
25663;SDS011;13522;50.018;20.014;2022-12-24T05:02:34;33.20;;;21.73;;
25663;SDS011;13522;50.018;20.014;2022-12-24T05:05:46;41.80;;;24.45;;
25663;SDS011;13522;50.018;20.014;2022-12-24T05:09:00;35.55;;;23.02;;
25663;SDS011;13522;50.018;20.014;2022-12-24T05:12:13;36.15;;;22.70;;
25663;SDS011;13522;50.018;20.014;2022-12-24T05:15:25;34.83;;;21.58;;
25663;SDS011;13522;50.018;20.014;2022-12-24T05:18:37;25.20;;;17.15;;
25663;SDS011;13522;50.018;20.014;2022-12-24T05:21:49;25.60;;;16.28;;
25663;SDS011;13522;50.018;20.014;2022-12-24T05:25:12;18.38;;;11.73;;
25663;SDS011;13522;50.018;20.014;2022-12-24T05:28:39;14.43;;;9.80;;
25663;SDS011;13522;50.018;20.014;2022-12-24T05:31:51;16.28;;;9.35;;
25663;SDS011;13522;50.018;20.014;2022-12-24T05:35:03;14.10;;;7.93;;
25663;SDS011;13522;50.018;20.014;2022-12-24T05:38:17;11.80;;;7.40;;
25663;SDS011;13522;50.018;20.014;2022-12-24T05:41:29;10.70;;;7.33;;
25663;SDS011;13522;50.018;20.014;2022-12-24T05:44:41;11.15;;;7.23;;
25663;SDS011;13522;50.018;20.014;2022-12-24T05:47:53;12.88;;;8.13;;
25663;SDS011;13522;50.018;20.014;2022-12-24T05:51:06;10.95;;;7.45;;
25663;SDS011;13522;50.018;20.014;2022-12-24T05:54:22;13.35;;;7.28;;
25663;SDS011;13522;50.018;20.014;2022-12-24T05:57:35;11.25;;;7.40;;
25663;SDS011;13522;50.018;20.014;2022-12-24T06:00:48;12.05;;;7.80;;
25663;SDS011;13522;50.018;20.014;2022-12-24T06:04:03;12.08;;;7.93;;
25663;SDS011;13522;50.018;20.014;2022-12-24T06:07:15;11.78;;;7.78;;
25663;SDS011;13522;50.018;20.014;2022-12-24T06:10:28;10.75;;;7.93;;
25663;SDS011;13522;50.018;20.014;2022-12-24T06:13:40;14.20;;;8.08;;
25663;SDS011;13522;50.018;20.014;2022-12-24T06:16:53;10.50;;;8.05;;
25663;SDS011;13522;50.018;20.014;2022-12-24T06:20:06;13.40;;;8.38;;
25663;SDS011;13522;50.018;20.014;2022-12-24T06:23:19;12.05;;;8.33;;
25663;SDS011;13522;50.018;20.014;2022-12-24T06:26:32;13.58;;;8.20;;
25663;SDS011;13522;50.018;20.014;2022-12-24T06:29:44;11.43;;;7.83;;
25663;SDS011;13522;50.018;20.014;2022-12-24T06:32:56;11.50;;;7.88;;
25663;SDS011;13522;50.018;20.014;2022-12-24T06:36:09;10.00;;;7.55;;
25663;SDS011;13522;50.018;20.014;2022-12-24T06:39:25;10.15;;;7.65;;
25663;SDS011;13522;50.018;20.014;2022-12-24T06:42:37;11.90;;;8.23;;
25663;SDS011;13522;50.018;20.014;2022-12-24T06:45:49;13.18;;;8.85;;
25663;SDS011;13522;50.018;20.014;2022-12-24T06:49:01;68.30;;;35.93;;
25663;SDS011;13522;50.018;20.014;2022-12-24T06:52:13;160.73;;;85.25;;
25663;SDS011;13522;50.018;20.014;2022-12-24T06:55:25;72.65;;;35.90;;
25663;SDS011;13522;50.018;20.014;2022-12-24T06:58:37;16.05;;;10.65;;
25663;SDS011;13522;50.018;20.014;2022-12-24T07:01:50;15.88;;;10.43;;
25663;SDS011;13522;50.018;20.014;2022-12-24T07:05:02;17.00;;;11.23;;
25663;SDS011;13522;50.018;20.014;2022-12-24T07:08:16;15.93;;;11.20;;
25663;SDS011;13522;50.018;20.014;2022-12-24T07:11:28;16.35;;;10.95;;
25663;SDS011;13522;50.018;20.014;2022-12-24T07:14:40;14.35;;;10.38;;
25663;SDS011;13522;50.018;20.014;2022-12-24T07:17:52;16.48;;;11.65;;
25663;SDS011;13522;50.018;20.014;2022-12-24T07:21:04;20.88;;;13.35;;
25663;SDS011;13522;50.018;20.014;2022-12-24T07:24:17;22.90;;;13.40;;
25663;SDS011;13522;50.018;20.014;2022-12-24T07:27:29;29.43;;;17.63;;
25663;SDS011;13522;50.018;20.014;2022-12-24T07:30:41;30.88;;;19.15;;
25663;SDS011;13522;50.018;20.014;2022-12-24T07:33:54;20.28;;;13.50;;
25663;SDS011;13522;50.018;20.014;2022-12-24T07:37:06;18.78;;;13.33;;
25663;SDS011;13522;50.018;20.014;2022-12-24T07:40:20;21.50;;;13.33;;
25663;SDS011;13522;50.018;20.014;2022-12-24T07:43:32;19.55;;;14.18;;
25663;SDS011;13522;50.018;20.014;2022-12-24T07:46:44;18.28;;;13.68;;
25663;SDS011;13522;50.018;20.014;2022-12-24T07:49:57;21.30;;;14.73;;
25663;SDS011;13522;50.018;20.014;2022-12-24T07:53:09;21.38;;;14.88;;
25663;SDS011;13522;50.018;20.014;2022-12-24T07:56:23;25.15;;;16.58;;
25663;SDS011;13522;50.018;20.014;2022-12-24T07:59:35;25.03;;;16.65;;
25663;SDS011;13522;50.018;20.014;2022-12-24T08:02:47;24.48;;;17.98;;
25663;SDS011;13522;50.018;20.014;2022-12-24T08:06:00;25.50;;;17.43;;
25663;SDS011;13522;50.018;20.014;2022-12-24T08:09:13;23.75;;;17.30;;
25663;SDS011;13522;50.018;20.014;2022-12-24T08:12:27;22.33;;;16.10;;
25663;SDS011;13522;50.018;20.014;2022-12-24T08:15:40;21.33;;;15.80;;
25663;SDS011;13522;50.018;20.014;2022-12-24T08:18:55;29.43;;;18.98;;
25663;SDS011;13522;50.018;20.014;2022-12-24T08:22:07;25.00;;;18.10;;
25663;SDS011;13522;50.018;20.014;2022-12-24T08:25:19;21.18;;;14.18;;
25663;SDS011;13522;50.018;20.014;2022-12-24T08:28:31;19.35;;;14.63;;
25663;SDS011;13522;50.018;20.014;2022-12-24T08:31:44;18.70;;;13.13;;
25663;SDS011;13522;50.018;20.014;2022-12-24T08:34:57;24.08;;;16.80;;
25663;SDS011;13522;50.018;20.014;2022-12-24T08:38:09;25.18;;;17.58;;
25663;SDS011;13522;50.018;20.014;2022-12-24T08:41:22;21.58;;;16.00;;
25663;SDS011;13522;50.018;20.014;2022-12-24T08:44:34;17.75;;;12.78;;
25663;SDS011;13522;50.018;20.014;2022-12-24T08:47:46;18.00;;;13.75;;
25663;SDS011;13522;50.018;20.014;2022-12-24T08:50:58;19.43;;;12.03;;
25663;SDS011;13522;50.018;20.014;2022-12-24T08:54:12;14.85;;;10.30;;
25663;SDS011;13522;50.018;20.014;2022-12-24T08:57:25;18.38;;;11.53;;
25663;SDS011;13522;50.018;20.014;2022-12-24T09:00:37;14.00;;;10.28;;
25663;SDS011;13522;50.018;20.014;2022-12-24T09:03:50;14.58;;;10.45;;
25663;SDS011;13522;50.018;20.014;2022-12-24T09:07:02;16.45;;;10.73;;
25663;SDS011;13522;50.018;20.014;2022-12-24T09:10:15;13.60;;;9.45;;
25663;SDS011;13522;50.018;20.014;2022-12-24T09:13:27;15.13;;;9.53;;
25663;SDS011;13522;50.018;20.014;2022-12-24T09:16:40;12.90;;;9.13;;
25663;SDS011;13522;50.018;20.014;2022-12-24T09:19:52;14.15;;;8.60;;
25663;SDS011;13522;50.018;20.014;2022-12-24T09:23:05;12.20;;;7.43;;
25663;SDS011;13522;50.018;20.014;2022-12-24T09:26:19;8.63;;;6.25;;
25663;SDS011;13522;50.018;20.014;2022-12-24T09:29:33;10.73;;;7.03;;
25663;SDS011;13522;50.018;20.014;2022-12-24T09:32:45;8.88;;;6.00;;
25663;SDS011;13522;50.018;20.014;2022-12-24T09:36:00;9.68;;;6.15;;
25663;SDS011;13522;50.018;20.014;2022-12-24T09:39:13;7.48;;;4.90;;
25663;SDS011;13522;50.018;20.014;2022-12-24T09:42:27;9.05;;;5.50;;
25663;SDS011;13522;50.018;20.014;2022-12-24T09:45:50;9.30;;;5.08;;
25663;SDS011;13522;50.018;20.014;2022-12-24T09:49:12;10.45;;;5.45;;
25663;SDS011;13522;50.018;20.014;2022-12-24T09:55:43;9.15;;;4.70;;
25663;SDS011;13522;50.018;20.014;2022-12-24T09:59:00;11.50;;;4.93;;
25663;SDS011;13522;50.018;20.014;2022-12-24T10:02:15;7.70;;;4.50;;
25663;SDS011;13522;50.018;20.014;2022-12-24T10:05:32;11.15;;;4.50;;
25663;SDS011;13522;50.018;20.014;2022-12-24T10:08:51;8.33;;;4.40;;
25663;SDS011;13522;50.018;20.014;2022-12-24T10:12:14;9.10;;;4.55;;
25663;SDS011;13522;50.018;20.014;2022-12-24T10:18:43;7.45;;;4.20;;
25663;SDS011;13522;50.018;20.014;2022-12-24T10:22:04;8.85;;;3.80;;
25663;SDS011;13522;50.018;20.014;2022-12-24T10:25:23;7.25;;;2.95;;
25663;SDS011;13522;50.018;20.014;2022-12-24T10:28:43;7.63;;;3.83;;
25663;SDS011;13522;50.018;20.014;2022-12-24T10:32:00;8.38;;;3.45;;
25663;SDS011;13522;50.018;20.014;2022-12-24T10:35:22;12.33;;;3.80;;
25663;SDS011;13522;50.018;20.014;2022-12-24T10:38:40;8.15;;;3.85;;
25663;SDS011;13522;50.018;20.014;2022-12-24T10:41:52;6.30;;;2.90;;
25663;SDS011;13522;50.018;20.014;2022-12-24T10:45:09;6.98;;;3.03;;
25663;SDS011;13522;50.018;20.014;2022-12-24T10:48:26;7.55;;;3.25;;
25663;SDS011;13522;50.018;20.014;2022-12-24T10:51:47;7.88;;;3.73;;
25663;SDS011;13522;50.018;20.014;2022-12-24T10:58:19;8.73;;;3.67;;
25663;SDS011;13522;50.018;20.014;2022-12-24T11:01:47;6.53;;;3.40;;
25663;SDS011;13522;50.018;20.014;2022-12-24T11:05:02;6.93;;;3.80;;
25663;SDS011;13522;50.018;20.014;2022-12-24T11:08:19;7.00;;;3.15;;
25663;SDS011;13522;50.018;20.014;2022-12-24T11:11:31;9.45;;;3.80;;
25663;SDS011;13522;50.018;20.014;2022-12-24T11:14:45;8.13;;;3.63;;
25663;SDS011;13522;50.018;20.014;2022-12-24T11:18:03;10.00;;;3.40;;
25663;SDS011;13522;50.018;20.014;2022-12-24T11:21:23;6.43;;;3.28;;
25663;SDS011;13522;50.018;20.014;2022-12-24T11:24:37;10.23;;;3.95;;
25663;SDS011;13522;50.018;20.014;2022-12-24T11:27:53;7.78;;;3.60;;
25663;SDS011;13522;50.018;20.014;2022-12-24T11:31:15;10.28;;;4.25;;
25663;SDS011;13522;50.018;20.014;2022-12-24T11:34:28;8.63;;;4.48;;
25663;SDS011;13522;50.018;20.014;2022-12-24T11:37:41;9.68;;;4.00;;
25663;SDS011;13522;50.018;20.014;2022-12-24T11:41:04;9.43;;;4.55;;
25663;SDS011;13522;50.018;20.014;2022-12-24T11:44:22;11.43;;;5.28;;
25663;SDS011;13522;50.018;20.014;2022-12-24T11:50:47;7.88;;;3.98;;
25663;SDS011;13522;50.018;20.014;2022-12-24T11:54:07;9.73;;;4.68;;
25663;SDS011;13522;50.018;20.014;2022-12-24T11:57:27;7.55;;;3.78;;
25663;SDS011;13522;50.018;20.014;2022-12-24T12:00:46;8.85;;;3.83;;
25663;SDS011;13522;50.018;20.014;2022-12-24T12:04:00;10.33;;;4.20;;
25663;SDS011;13522;50.018;20.014;2022-12-24T12:07:19;10.30;;;4.15;;
25663;SDS011;13522;50.018;20.014;2022-12-24T12:10:37;12.53;;;4.08;;
25663;SDS011;13522;50.018;20.014;2022-12-24T12:13:52;10.53;;;4.10;;
25663;SDS011;13522;50.018;20.014;2022-12-24T12:17:11;10.68;;;4.35;;
25663;SDS011;13522;50.018;20.014;2022-12-24T12:20:27;8.50;;;4.38;;
25663;SDS011;13522;50.018;20.014;2022-12-24T12:27:00;9.20;;;3.95;;
25663;SDS011;13522;50.018;20.014;2022-12-24T12:30:19;11.43;;;3.90;;
25663;SDS011;13522;50.018;20.014;2022-12-24T12:33:34;8.18;;;4.20;;
25663;SDS011;13522;50.018;20.014;2022-12-24T12:36:52;12.35;;;4.90;;
25663;SDS011;13522;50.018;20.014;2022-12-24T12:40:13;12.18;;;5.35;;
25663;SDS011;13522;50.018;20.014;2022-12-24T12:43:30;7.45;;;4.33;;
25663;SDS011;13522;50.018;20.014;2022-12-24T12:47:02;10.95;;;4.93;;
25663;SDS011;13522;50.018;20.014;2022-12-24T12:50:26;9.45;;;5.13;;
25663;SDS011;13522;50.018;20.014;2022-12-24T12:53:46;12.73;;;5.73;;
25663;SDS011;13522;50.018;20.014;2022-12-24T12:57:30;8.63;;;4.65;;
25663;SDS011;13522;50.018;20.014;2022-12-24T13:00:45;11.55;;;5.70;;
25663;SDS011;13522;50.018;20.014;2022-12-24T13:08:12;13.98;;;5.50;;
25663;SDS011;13522;50.018;20.014;2022-12-24T13:11:43;18.93;;;5.83;;
25663;SDS011;13522;50.018;20.014;2022-12-24T13:15:31;13.53;;;5.68;;
25663;SDS011;13522;50.018;20.014;2022-12-24T13:19:01;15.65;;;6.25;;
25663;SDS011;13522;50.018;20.014;2022-12-24T13:22:26;15.20;;;6.25;;
25663;SDS011;13522;50.018;20.014;2022-12-24T13:25:39;12.68;;;6.10;;
25663;SDS011;13522;50.018;20.014;2022-12-24T13:28:56;12.43;;;5.60;;
25663;SDS011;13522;50.018;20.014;2022-12-24T13:32:49;12.23;;;6.43;;
25663;SDS011;13522;50.018;20.014;2022-12-24T13:36:03;14.75;;;7.08;;
25663;SDS011;13522;50.018;20.014;2022-12-24T13:50:16;11.00;;;6.18;;
25663;SDS011;13522;50.018;20.014;2022-12-24T13:53:36;15.98;;;7.05;;
25663;SDS011;13522;50.018;20.014;2022-12-24T13:56:54;11.05;;;6.25;;
25663;SDS011;13522;50.018;20.014;2022-12-24T14:03:54;16.20;;;7.18;;
25663;SDS011;13522;50.018;20.014;2022-12-24T14:07:12;16.35;;;6.98;;
25663;SDS011;13522;50.018;20.014;2022-12-24T14:10:29;17.80;;;8.08;;
25663;SDS011;13522;50.018;20.014;2022-12-24T14:13:53;17.98;;;7.90;;
25663;SDS011;13522;50.018;20.014;2022-12-24T14:17:36;13.78;;;7.00;;
25663;SDS011;13522;50.018;20.014;2022-12-24T14:20:49;15.73;;;8.08;;
25663;SDS011;13522;50.018;20.014;2022-12-24T14:24:05;15.48;;;8.03;;
25663;SDS011;13522;50.018;20.014;2022-12-24T14:27:24;18.78;;;8.85;;
25663;SDS011;13522;50.018;20.014;2022-12-24T14:30:43;19.40;;;9.45;;
25663;SDS011;13522;50.018;20.014;2022-12-24T14:34:07;17.60;;;9.45;;
25663;SDS011;13522;50.018;20.014;2022-12-24T14:37:22;18.40;;;9.25;;
25663;SDS011;13522;50.018;20.014;2022-12-24T14:40:40;19.20;;;9.75;;
25663;SDS011;13522;50.018;20.014;2022-12-24T14:44:00;17.85;;;10.23;;
25663;SDS011;13522;50.018;20.014;2022-12-24T14:47:20;19.70;;;10.38;;
25663;SDS011;13522;50.018;20.014;2022-12-24T14:50:43;20.30;;;10.93;;
25663;SDS011;13522;50.018;20.014;2022-12-24T14:57:48;21.80;;;10.35;;
25663;SDS011;13522;50.018;20.014;2022-12-24T15:01:00;22.40;;;10.15;;
25663;SDS011;13522;50.018;20.014;2022-12-24T15:04:28;19.08;;;10.33;;
25663;SDS011;13522;50.018;20.014;2022-12-24T15:07:42;24.98;;;11.00;;
25663;SDS011;13522;50.018;20.014;2022-12-24T15:11:01;17.83;;;9.28;;
25663;SDS011;13522;50.018;20.014;2022-12-24T15:14:16;23.73;;;10.30;;
25663;SDS011;13522;50.018;20.014;2022-12-24T15:17:32;20.40;;;9.90;;
25663;SDS011;13522;50.018;20.014;2022-12-24T15:20:46;19.28;;;9.60;;
25663;SDS011;13522;50.018;20.014;2022-12-24T15:24:04;18.15;;;9.30;;
25663;SDS011;13522;50.018;20.014;2022-12-24T15:27:32;21.20;;;10.18;;
25663;SDS011;13522;50.018;20.014;2022-12-24T15:30:50;24.55;;;10.45;;
25663;SDS011;13522;50.018;20.014;2022-12-24T15:34:25;20.38;;;9.90;;
25663;SDS011;13522;50.018;20.014;2022-12-24T15:37:41;17.78;;;9.68;;
25663;SDS011;13522;50.018;20.014;2022-12-24T15:40:54;19.85;;;9.45;;
25663;SDS011;13522;50.018;20.014;2022-12-24T15:44:11;19.38;;;9.15;;
25663;SDS011;13522;50.018;20.014;2022-12-24T15:47:26;18.38;;;9.68;;
25663;SDS011;13522;50.018;20.014;2022-12-24T15:50:43;19.65;;;9.88;;
25663;SDS011;13522;50.018;20.014;2022-12-24T15:53:59;17.65;;;8.93;;
25663;SDS011;13522;50.018;20.014;2022-12-24T15:57:20;18.45;;;9.55;;
25663;SDS011;13522;50.018;20.014;2022-12-24T16:00:36;20.05;;;9.75;;
25663;SDS011;13522;50.018;20.014;2022-12-24T16:03:54;19.90;;;9.75;;
25663;SDS011;13522;50.018;20.014;2022-12-24T16:07:09;24.98;;;10.23;;
25663;SDS011;13522;50.018;20.014;2022-12-24T16:10:35;21.48;;;10.60;;
25663;SDS011;13522;50.018;20.014;2022-12-24T16:13:57;21.20;;;10.23;;
25663;SDS011;13522;50.018;20.014;2022-12-24T16:17:16;21.05;;;10.10;;
25663;SDS011;13522;50.018;20.014;2022-12-24T16:23:45;25.75;;;10.70;;
25663;SDS011;13522;50.018;20.014;2022-12-24T16:27:00;20.68;;;10.30;;
25663;SDS011;13522;50.018;20.014;2022-12-24T16:30:16;20.23;;;9.43;;
25663;SDS011;13522;50.018;20.014;2022-12-24T16:33:29;20.80;;;9.13;;
25663;SDS011;13522;50.018;20.014;2022-12-24T16:36:41;19.65;;;9.40;;
25663;SDS011;13522;50.018;20.014;2022-12-24T16:39:54;23.33;;;11.35;;
25663;SDS011;13522;50.018;20.014;2022-12-24T16:43:06;24.90;;;11.55;;
25663;SDS011;13522;50.018;20.014;2022-12-24T16:46:33;23.75;;;10.58;;
25663;SDS011;13522;50.018;20.014;2022-12-24T16:49:45;19.83;;;10.10;;
25663;SDS011;13522;50.018;20.014;2022-12-24T16:52:57;19.48;;;9.78;;
25663;SDS011;13522;50.018;20.014;2022-12-24T16:56:19;25.68;;;10.88;;
25663;SDS011;13522;50.018;20.014;2022-12-24T16:59:31;27.18;;;13.43;;
25663;SDS011;13522;50.018;20.014;2022-12-24T17:02:44;27.10;;;13.60;;
25663;SDS011;13522;50.018;20.014;2022-12-24T17:06:00;25.93;;;13.63;;
25663;SDS011;13522;50.018;20.014;2022-12-24T17:09:17;26.75;;;12.48;;
25663;SDS011;13522;50.018;20.014;2022-12-24T17:12:29;27.70;;;13.08;;
25663;SDS011;13522;50.018;20.014;2022-12-24T17:16:09;23.02;;;12.50;;
25663;SDS011;13522;50.018;20.014;2022-12-24T17:19:22;27.03;;;13.08;;
25663;SDS011;13522;50.018;20.014;2022-12-24T17:22:34;29.28;;;13.70;;
25663;SDS011;13522;50.018;20.014;2022-12-24T17:25:48;28.15;;;13.33;;
25663;SDS011;13522;50.018;20.014;2022-12-24T17:29:19;32.80;;;16.15;;
25663;SDS011;13522;50.018;20.014;2022-12-24T17:32:34;31.15;;;16.43;;
25663;SDS011;13522;50.018;20.014;2022-12-24T17:35:46;32.18;;;16.15;;
25663;SDS011;13522;50.018;20.014;2022-12-24T17:38:58;33.40;;;16.10;;
25663;SDS011;13522;50.018;20.014;2022-12-24T17:42:10;33.20;;;16.43;;
25663;SDS011;13522;50.018;20.014;2022-12-24T17:45:22;31.70;;;15.20;;
25663;SDS011;13522;50.018;20.014;2022-12-24T17:48:34;33.85;;;16.45;;
25663;SDS011;13522;50.018;20.014;2022-12-24T17:51:47;36.58;;;16.50;;
25663;SDS011;13522;50.018;20.014;2022-12-24T17:55:10;28.83;;;14.70;;
25663;SDS011;13522;50.018;20.014;2022-12-24T17:58:50;31.73;;;15.45;;
25663;SDS011;13522;50.018;20.014;2022-12-24T18:02:03;32.10;;;15.40;;
25663;SDS011;13522;50.018;20.014;2022-12-24T18:05:16;31.65;;;15.95;;
25663;SDS011;13522;50.018;20.014;2022-12-24T18:08:28;35.00;;;16.48;;
25663;SDS011;13522;50.018;20.014;2022-12-24T18:11:42;33.90;;;15.85;;
25663;SDS011;13522;50.018;20.014;2022-12-24T18:14:55;32.68;;;16.55;;
25663;SDS011;13522;50.018;20.014;2022-12-24T18:18:08;38.98;;;16.60;;
25663;SDS011;13522;50.018;20.014;2022-12-24T18:21:22;34.28;;;16.45;;
25663;SDS011;13522;50.018;20.014;2022-12-24T18:24:37;34.60;;;16.23;;
25663;SDS011;13522;50.018;20.014;2022-12-24T18:27:50;32.90;;;16.30;;
25663;SDS011;13522;50.018;20.014;2022-12-24T18:31:03;30.18;;;15.30;;
25663;SDS011;13522;50.018;20.014;2022-12-24T18:34:18;27.15;;;13.45;;
25663;SDS011;13522;50.018;20.014;2022-12-24T18:37:31;24.70;;;12.63;;
25663;SDS011;13522;50.018;20.014;2022-12-24T18:40:43;29.85;;;13.85;;
25663;SDS011;13522;50.018;20.014;2022-12-24T18:43:56;33.08;;;14.48;;
25663;SDS011;13522;50.018;20.014;2022-12-24T18:47:09;27.40;;;14.08;;
25663;SDS011;13522;50.018;20.014;2022-12-24T18:50:21;30.80;;;13.15;;
25663;SDS011;13522;50.018;20.014;2022-12-24T18:53:33;24.63;;;12.50;;
25663;SDS011;13522;50.018;20.014;2022-12-24T18:56:46;23.80;;;11.70;;
25663;SDS011;13522;50.018;20.014;2022-12-24T19:00:00;28.85;;;12.80;;
25663;SDS011;13522;50.018;20.014;2022-12-24T19:03:14;28.68;;;12.65;;
25663;SDS011;13522;50.018;20.014;2022-12-24T19:06:26;30.65;;;12.40;;
25663;SDS011;13522;50.018;20.014;2022-12-24T19:09:38;27.10;;;11.98;;
25663;SDS011;13522;50.018;20.014;2022-12-24T19:12:51;27.20;;;12.48;;
25663;SDS011;13522;50.018;20.014;2022-12-24T19:16:04;29.10;;;12.60;;
25663;SDS011;13522;50.018;20.014;2022-12-24T19:19:17;30.00;;;13.05;;
25663;SDS011;13522;50.018;20.014;2022-12-24T19:22:29;27.43;;;12.95;;
25663;SDS011;13522;50.018;20.014;2022-12-24T19:25:41;25.40;;;12.70;;
25663;SDS011;13522;50.018;20.014;2022-12-24T19:28:54;29.40;;;14.30;;
25663;SDS011;13522;50.018;20.014;2022-12-24T19:32:06;28.73;;;14.40;;
25663;SDS011;13522;50.018;20.014;2022-12-24T19:35:18;29.73;;;14.35;;
25663;SDS011;13522;50.018;20.014;2022-12-24T19:38:30;26.53;;;12.63;;
25663;SDS011;13522;50.018;20.014;2022-12-24T19:41:43;22.43;;;11.33;;
25663;SDS011;13522;50.018;20.014;2022-12-24T19:44:55;25.13;;;12.35;;
25663;SDS011;13522;50.018;20.014;2022-12-24T19:48:07;25.48;;;12.90;;
25663;SDS011;13522;50.018;20.014;2022-12-24T19:51:19;30.65;;;12.48;;